createdAt,value
2019-03-05T00:00:13.410Z,27.00
2019-03-05T00:00:56.573Z,27.00
2019-03-05T00:01:43.102Z,27.00
2019-03-05T00:02:21.763Z,27.00
2019-03-05T00:03:00.431Z,27.10
2019-03-05T00:03:39.679Z,27.00
2019-03-05T00:04:18.974Z,27.00
2019-03-05T00:04:57.897Z,27.00
2019-03-05T00:05:37.228Z,27.00
2019-03-05T00:06:15.969Z,27.10
2019-03-05T00:06:54.690Z,27.10
2019-03-05T00:07:34.170Z,27.10
2019-03-05T00:08:12.817Z,27.10
2019-03-05T00:08:51.534Z,27.10
2019-03-05T00:09:30.200Z,27.10
2019-03-05T00:10:10.363Z,27.10
2019-03-05T00:10:49.744Z,27.10
2019-03-05T00:11:28.704Z,27.10
2019-03-05T00:12:08.104Z,27.10
2019-03-05T00:12:47.388Z,27.10
2019-03-05T00:13:26.633Z,27.10
2019-03-05T00:14:06.049Z,27.10
2019-03-05T00:14:45.435Z,27.10
2019-03-05T00:15:26.474Z,27.10
2019-03-05T00:16:05.687Z,27.10
2019-03-05T00:16:45.314Z,27.10
2019-03-05T00:17:23.959Z,27.10
2019-03-05T00:18:02.631Z,27.10
2019-03-05T00:18:41.341Z,27.10
2019-03-05T00:19:20.569Z,27.10
2019-03-05T00:19:59.747Z,27.10
2019-03-05T00:20:39.028Z,27.10
2019-03-05T00:21:18.324Z,27.10
2019-03-05T00:21:57.703Z,27.10
2019-03-05T00:22:37.102Z,27.10
2019-03-05T00:23:16.810Z,27.10
2019-03-05T00:24:01.073Z,27.20
2019-03-05T00:25:04.315Z,27.10
2019-03-05T00:25:43.058Z,27.20
2019-03-05T00:26:23.421Z,27.20
2019-03-05T00:27:02.105Z,27.20
2019-03-05T00:27:50.713Z,27.20
2019-03-05T00:28:43.189Z,27.20
2019-03-05T00:30:02.910Z,27.20
2019-03-05T00:31:00.318Z,27.20
2019-03-05T00:31:41.002Z,27.20
2019-03-05T00:32:20.469Z,27.20
2019-03-05T00:33:03.122Z,27.20
2019-03-05T00:34:01.200Z,27.20
2019-03-05T00:35:08.647Z,27.20
2019-03-05T00:36:24.810Z,27.20
2019-03-05T00:37:16.379Z,27.20
2019-03-05T00:38:35.123Z,27.20
2019-03-05T00:39:51.535Z,27.20
2019-03-05T00:41:03.000Z,27.20
2019-03-05T00:42:01.202Z,27.20
2019-03-05T00:43:27.024Z,27.20
2019-03-05T00:44:25.886Z,27.20
2019-03-05T00:45:18.816Z,27.30
2019-03-05T00:46:18.452Z,27.30
2019-03-05T00:47:31.273Z,27.30
2019-03-05T00:48:31.386Z,27.20
2019-03-05T00:49:35.063Z,27.30
2019-03-05T00:50:49.530Z,27.30
2019-03-05T00:52:01.832Z,27.30
2019-03-05T00:53:00.924Z,27.30
2019-03-05T00:54:20.231Z,27.30
2019-03-05T00:55:45.034Z,27.30
2019-03-05T00:56:50.931Z,27.30
2019-03-05T00:57:56.807Z,27.30
2019-03-05T00:59:12.029Z,27.30
2019-03-05T01:00:13.148Z,27.30
2019-03-05T01:01:32.978Z,27.30
2019-03-05T01:02:29.622Z,27.30
2019-03-05T01:03:20.461Z,27.30
2019-03-05T01:04:23.813Z,27.30
2019-03-05T01:05:51.926Z,27.40
2019-03-05T01:06:31.173Z,27.40
2019-03-05T01:07:10.499Z,27.30
2019-03-05T01:07:49.229Z,27.40
2019-03-05T01:08:28.028Z,27.40
2019-03-05T01:09:08.456Z,27.40
2019-03-05T01:09:47.132Z,27.40
2019-03-05T01:10:26.241Z,27.40
2019-03-05T01:11:05.148Z,27.40
2019-03-05T01:11:44.396Z,27.40
2019-03-05T01:12:24.198Z,27.40
2019-03-05T01:13:03.647Z,27.40
2019-03-05T01:13:42.382Z,27.40
2019-03-05T01:14:22.837Z,27.20
2019-03-05T01:15:02.004Z,27.10
2019-03-05T01:15:41.508Z,26.90
2019-03-05T01:16:24.598Z,26.80
2019-03-05T01:17:03.879Z,26.60
2019-03-05T01:17:46.895Z,26.40
2019-03-05T01:18:24.931Z,26.40
2019-03-05T01:19:23.324Z,26.20
2019-03-05T01:20:02.700Z,26.10
2019-03-05T01:20:42.121Z,26.00
2019-03-05T01:21:21.424Z,26.00
2019-03-05T01:22:00.632Z,26.00
2019-03-05T01:22:39.466Z,25.90
2019-03-05T01:23:18.854Z,25.90
2019-03-05T01:23:58.377Z,25.90
2019-03-05T01:24:37.316Z,25.80
2019-03-05T01:25:31.352Z,25.80
2019-03-05T01:26:10.685Z,25.80
2019-03-05T01:26:50.160Z,25.80
2019-03-05T01:27:29.658Z,25.80
2019-03-05T01:28:08.344Z,25.70
2019-03-05T01:28:46.987Z,25.60
2019-03-05T01:29:25.891Z,25.60
2019-03-05T01:30:05.135Z,25.60
2019-03-05T01:31:06.624Z,25.60
2019-03-05T01:32:06.936Z,25.60
2019-03-05T01:32:53.271Z,25.70
2019-03-05T01:33:36.727Z,25.90
2019-03-05T01:34:28.853Z,26.00
2019-03-05T01:35:19.184Z,26.10
2019-03-05T01:36:02.917Z,26.20
2019-03-05T01:36:44.898Z,26.30
2019-03-05T01:37:24.160Z,26.40
2019-03-05T01:38:02.912Z,26.50
2019-03-05T01:38:58.872Z,26.60
2019-03-05T01:39:54.481Z,26.60
2019-03-05T01:40:41.409Z,26.70
2019-03-05T01:41:21.034Z,26.70
2019-03-05T01:41:59.767Z,26.80
2019-03-05T01:42:38.495Z,26.80
2019-03-05T01:43:17.707Z,26.80
2019-03-05T01:43:56.980Z,26.80
2019-03-05T01:44:36.277Z,26.80
2019-03-05T01:45:16.664Z,26.80
2019-03-05T01:45:56.043Z,26.90
2019-03-05T01:46:35.329Z,26.90
2019-03-05T01:47:14.053Z,27.00
2019-03-05T01:47:53.528Z,27.00
2019-03-05T01:48:32.328Z,27.00
2019-03-05T01:49:11.098Z,27.00
2019-03-05T01:49:49.819Z,27.00
2019-03-05T01:50:28.602Z,27.10
2019-03-05T01:51:07.773Z,27.10
2019-03-05T01:51:47.054Z,27.10
2019-03-05T01:52:30.611Z,27.10
2019-03-05T01:53:10.346Z,27.10
2019-03-05T01:53:49.318Z,27.10
2019-03-05T01:54:28.588Z,27.10
2019-03-05T01:55:07.978Z,27.20
2019-03-05T01:55:47.511Z,27.20
2019-03-05T01:56:26.197Z,27.20
2019-03-05T01:57:04.846Z,27.20
2019-03-05T01:57:43.601Z,27.20
2019-03-05T01:58:22.997Z,27.20
2019-03-05T01:59:01.703Z,27.30
2019-03-05T01:59:40.417Z,27.20
2019-03-05T02:00:19.124Z,27.30
2019-03-05T02:00:57.896Z,27.30
2019-03-05T02:01:36.530Z,27.30
2019-03-05T02:02:15.548Z,27.30
2019-03-05T02:02:54.221Z,27.30
2019-03-05T02:03:33.348Z,27.30
2019-03-05T02:04:12.016Z,27.30
2019-03-05T02:04:50.722Z,27.30
2019-03-05T02:05:29.484Z,27.30
2019-03-05T02:06:08.144Z,27.30
2019-03-05T02:06:46.886Z,27.40
2019-03-05T02:07:25.633Z,27.30
2019-03-05T02:08:04.335Z,27.30
2019-03-05T02:08:43.067Z,27.40
2019-03-05T02:09:21.777Z,27.30
2019-03-05T02:10:01.202Z,27.40
2019-03-05T02:10:58.130Z,27.40
2019-03-05T02:11:37.320Z,27.40
2019-03-05T02:12:16.794Z,27.40
2019-03-05T02:12:56.262Z,27.40
2019-03-05T02:13:35.719Z,27.40
2019-03-05T02:14:14.882Z,27.40
2019-03-05T02:14:53.523Z,27.40
2019-03-05T02:15:32.707Z,27.40
2019-03-05T02:16:12.243Z,27.40
2019-03-05T02:16:50.904Z,27.40
2019-03-05T02:17:30.373Z,27.40
2019-03-05T02:18:09.433Z,27.40
2019-03-05T02:18:48.637Z,27.40
2019-03-05T02:19:41.607Z,27.40
2019-03-05T02:20:27.986Z,27.50
2019-03-05T02:21:07.255Z,27.50
2019-03-05T02:21:46.542Z,27.40
2019-03-05T02:22:54.762Z,27.40
2019-03-05T02:24:09.922Z,27.50
2019-03-05T02:25:13.264Z,27.50
2019-03-05T02:26:12.903Z,27.50
2019-03-05T02:27:34.076Z,27.50
2019-03-05T02:28:57.331Z,27.50
2019-03-05T02:29:48.856Z,27.50
2019-03-05T02:30:42.331Z,27.50
2019-03-05T02:31:55.328Z,27.50
2019-03-05T02:33:08.594Z,27.50
2019-03-05T02:34:27.474Z,27.60
2019-03-05T02:35:21.199Z,27.50
2019-03-05T02:36:27.307Z,27.60
2019-03-05T02:37:48.584Z,27.60
2019-03-05T02:38:49.092Z,27.60
2019-03-05T02:40:19.612Z,27.60
2019-03-05T02:41:26.862Z,27.60
2019-03-05T02:42:20.299Z,27.60
2019-03-05T02:43:18.582Z,27.60
2019-03-05T02:44:40.605Z,27.60
2019-03-05T02:45:35.091Z,27.60
2019-03-05T02:46:51.203Z,27.60
2019-03-05T02:47:52.422Z,27.60
2019-03-05T02:49:12.243Z,27.70
2019-03-05T02:50:42.304Z,27.70
2019-03-05T02:51:46.519Z,27.70
2019-03-05T02:53:09.202Z,27.70
2019-03-05T02:54:40.610Z,27.70
2019-03-05T02:56:14.556Z,27.70
2019-03-05T02:57:17.707Z,27.70
2019-03-05T02:57:52.864Z,27.70
2019-03-05T02:58:28.396Z,27.70
2019-03-05T02:59:03.605Z,27.70
2019-03-05T02:59:42.334Z,27.70
2019-03-05T03:00:30.807Z,27.70
2019-03-05T03:01:34.327Z,27.70
2019-03-05T03:02:30.545Z,27.70
2019-03-05T03:03:18.687Z,27.70
2019-03-05T03:04:01.403Z,27.80
2019-03-05T03:04:44.315Z,27.80
2019-03-05T03:05:33.648Z,27.80
2019-03-05T03:06:22.298Z,27.80
2019-03-05T03:07:01.483Z,27.80
2019-03-05T03:07:40.797Z,27.80
2019-03-05T03:08:20.251Z,27.80
2019-03-05T03:09:32.425Z,27.80
2019-03-05T03:10:24.981Z,27.80
2019-03-05T03:11:03.946Z,27.80
2019-03-05T03:11:43.266Z,27.80
2019-03-05T03:12:23.574Z,27.90
2019-03-05T03:13:02.981Z,27.80
2019-03-05T03:13:41.717Z,27.90
2019-03-05T03:14:20.670Z,27.90
2019-03-05T03:14:59.466Z,27.90
2019-03-05T03:15:38.174Z,27.90
2019-03-05T03:16:17.683Z,27.90
2019-03-05T03:16:57.069Z,27.90
2019-03-05T03:17:36.178Z,27.90
2019-03-05T03:18:15.080Z,27.90
2019-03-05T03:18:53.762Z,27.90
2019-03-05T03:19:33.260Z,27.90
2019-03-05T03:20:13.318Z,27.90
2019-03-05T03:20:52.591Z,27.90
2019-03-05T03:21:31.772Z,27.90
2019-03-05T03:22:11.052Z,27.90
2019-03-05T03:22:49.696Z,27.90
2019-03-05T03:23:28.465Z,27.90
2019-03-05T03:24:07.093Z,28.00
2019-03-05T03:24:46.004Z,28.00
2019-03-05T03:25:25.801Z,28.00
2019-03-05T03:26:04.878Z,28.00
2019-03-05T03:26:44.419Z,28.00
2019-03-05T03:27:23.921Z,28.00
2019-03-05T03:28:03.235Z,28.00
2019-03-05T03:28:42.629Z,28.00
2019-03-05T03:29:22.125Z,28.00
2019-03-05T03:30:01.679Z,28.00
2019-03-05T03:30:40.366Z,28.00
2019-03-05T03:31:19.105Z,28.00
2019-03-05T03:31:57.727Z,28.00
2019-03-05T03:32:36.604Z,28.00
2019-03-05T03:33:15.893Z,28.00
2019-03-05T03:33:55.270Z,28.00
2019-03-05T03:34:34.540Z,28.10
2019-03-05T03:35:14.528Z,28.10
2019-03-05T03:35:54.029Z,28.10
2019-03-05T03:36:33.235Z,28.10
2019-03-05T03:37:12.807Z,28.10
2019-03-05T03:37:52.040Z,28.10
2019-03-05T03:38:31.492Z,28.10
2019-03-05T03:39:11.115Z,28.10
2019-03-05T03:39:49.772Z,28.10
2019-03-05T03:40:28.851Z,28.10
2019-03-05T03:41:07.790Z,28.10
2019-03-05T03:41:47.087Z,28.10
2019-03-05T03:42:26.102Z,28.10
2019-03-05T03:43:05.334Z,28.10
2019-03-05T03:43:44.619Z,28.10
2019-03-05T03:44:23.868Z,28.10
2019-03-05T03:45:03.350Z,28.10
2019-03-05T03:45:42.592Z,28.10
2019-03-05T03:46:22.030Z,28.10
2019-03-05T03:47:01.001Z,28.10
2019-03-05T03:47:39.777Z,28.20
2019-03-05T03:48:19.176Z,28.10
2019-03-05T03:48:58.033Z,28.20
2019-03-05T03:49:37.154Z,28.20
2019-03-05T03:50:16.372Z,28.20
2019-03-05T03:50:55.431Z,28.20
2019-03-05T03:51:34.508Z,28.20
2019-03-05T03:52:13.787Z,28.20
2019-03-05T03:52:53.087Z,28.20
2019-03-05T03:53:32.374Z,28.20
2019-03-05T03:54:11.722Z,28.20
2019-03-05T03:54:50.385Z,28.20
2019-03-05T03:55:29.126Z,28.20
2019-03-05T03:56:07.856Z,28.20
2019-03-05T03:56:46.771Z,28.20
2019-03-05T03:57:26.209Z,28.30
2019-03-05T03:58:05.385Z,28.30
2019-03-05T03:58:44.894Z,28.30
2019-03-05T03:59:24.498Z,28.30
2019-03-05T04:00:03.846Z,28.30
2019-03-05T04:00:42.581Z,28.30
2019-03-05T04:01:21.225Z,28.30
2019-03-05T04:01:59.942Z,28.30
2019-03-05T04:02:39.013Z,28.30
2019-03-05T04:03:18.283Z,28.30
2019-03-05T04:03:57.032Z,28.30
2019-03-05T04:04:35.661Z,28.30
2019-03-05T04:05:15.042Z,28.30
2019-03-05T04:05:53.695Z,28.30
2019-03-05T04:06:33.019Z,28.30
2019-03-05T04:07:12.236Z,28.40
2019-03-05T04:07:50.933Z,28.40
2019-03-05T04:08:29.918Z,28.40
2019-03-05T04:09:10.862Z,28.40
2019-03-05T04:09:49.862Z,28.40
2019-03-05T04:10:32.264Z,28.40
2019-03-05T04:11:11.683Z,28.40
2019-03-05T04:11:50.435Z,28.40
2019-03-05T04:12:29.475Z,28.40
2019-03-05T04:13:11.939Z,28.40
2019-03-05T04:13:51.327Z,28.40
2019-03-05T04:14:30.216Z,28.40
2019-03-05T04:15:10.099Z,28.40
2019-03-05T04:15:50.933Z,28.40
2019-03-05T04:16:30.049Z,28.50
2019-03-05T04:17:09.374Z,28.40
2019-03-05T04:17:48.975Z,28.50
2019-03-05T04:18:28.276Z,28.50
2019-03-05T04:19:10.989Z,28.50
2019-03-05T04:19:50.106Z,28.50
2019-03-05T04:20:37.294Z,28.50
2019-03-05T04:21:22.888Z,28.50
2019-03-05T04:22:01.597Z,28.50
2019-03-05T04:22:59.236Z,28.50
2019-03-05T04:23:38.289Z,28.50
2019-03-05T04:24:17.772Z,28.50
2019-03-05T04:24:56.976Z,28.50
2019-03-05T04:25:39.159Z,28.50
2019-03-05T04:26:17.482Z,28.50
2019-03-05T04:26:56.819Z,28.50
2019-03-05T04:27:36.212Z,28.50
2019-03-05T04:28:15.085Z,28.50
2019-03-05T04:28:53.772Z,28.50
2019-03-05T04:29:33.254Z,28.60
2019-03-05T04:30:14.430Z,28.60
2019-03-05T04:30:56.407Z,28.60
2019-03-05T04:31:36.141Z,28.60
2019-03-05T04:32:15.258Z,28.60
2019-03-05T04:32:53.959Z,28.60
2019-03-05T04:33:32.631Z,28.60
2019-03-05T04:34:11.442Z,28.60
2019-03-05T04:34:50.464Z,28.60
2019-03-05T04:35:29.685Z,28.60
2019-03-05T04:36:08.393Z,28.60
2019-03-05T04:36:47.964Z,28.60
2019-03-05T04:37:27.216Z,28.60
2019-03-05T04:38:06.631Z,28.60
2019-03-05T04:38:45.542Z,28.60
2019-03-05T04:39:24.361Z,28.60
2019-03-05T04:40:06.756Z,28.60
2019-03-05T04:40:45.481Z,28.60
2019-03-05T04:41:24.179Z,28.60
2019-03-05T04:42:02.937Z,28.60
2019-03-05T04:42:42.707Z,28.60
2019-03-05T04:43:21.966Z,28.60
2019-03-05T04:44:01.278Z,28.60
2019-03-05T04:44:54.597Z,28.60
2019-03-05T04:45:48.606Z,28.70
2019-03-05T04:46:38.395Z,28.70
2019-03-05T04:47:17.745Z,28.70
2019-03-05T04:47:56.670Z,28.70
2019-03-05T04:48:35.238Z,28.70
2019-03-05T04:49:21.864Z,28.70
2019-03-05T04:50:19.355Z,28.70
2019-03-05T04:51:08.500Z,28.70
2019-03-05T04:51:52.071Z,28.70
2019-03-05T04:52:34.343Z,28.70
2019-03-05T04:53:13.296Z,28.70
2019-03-05T04:53:52.355Z,28.70
2019-03-05T04:54:31.545Z,28.70
2019-03-05T04:55:11.734Z,28.70
2019-03-05T04:55:51.039Z,28.70
2019-03-05T04:56:30.287Z,28.70
2019-03-05T04:57:10.517Z,28.80
2019-03-05T04:57:50.684Z,28.80
2019-03-05T04:58:30.764Z,28.80
2019-03-05T04:59:10.220Z,28.80
2019-03-05T04:59:50.225Z,28.80
2019-03-05T05:00:28.908Z,28.80
2019-03-05T05:01:07.605Z,28.80
2019-03-05T05:01:46.959Z,28.80
2019-03-05T05:02:25.731Z,28.80
2019-03-05T05:03:04.467Z,28.80
2019-03-05T05:03:43.436Z,28.80
2019-03-05T05:04:22.637Z,28.80
2019-03-05T05:05:01.701Z,28.80
2019-03-05T05:05:41.016Z,28.80
2019-03-05T05:06:20.541Z,28.80
2019-03-05T05:06:59.291Z,28.80
2019-03-05T05:07:38.097Z,28.80
2019-03-05T05:08:16.836Z,28.80
2019-03-05T05:08:55.635Z,28.90
2019-03-05T05:09:34.335Z,28.90
2019-03-05T05:10:13.475Z,28.90
2019-03-05T05:10:52.775Z,28.90
2019-03-05T05:11:31.864Z,28.90
2019-03-05T05:12:11.151Z,28.90
2019-03-05T05:12:50.684Z,28.90
2019-03-05T05:13:30.116Z,28.90
2019-03-05T05:14:09.593Z,28.90
2019-03-05T05:14:49.064Z,28.90
2019-03-05T05:15:30.840Z,28.90
2019-03-05T05:16:10.070Z,28.90
2019-03-05T05:16:49.688Z,28.90
2019-03-05T05:17:28.401Z,28.90
2019-03-05T05:18:07.481Z,28.90
2019-03-05T05:18:46.177Z,29.00
2019-03-05T05:19:27.316Z,28.90
2019-03-05T05:20:05.188Z,29.00
2019-03-05T05:20:44.335Z,29.00
2019-03-05T05:21:23.363Z,29.00
2019-03-05T05:22:02.328Z,29.00
2019-03-05T05:22:41.892Z,29.00
2019-03-05T05:23:21.124Z,29.00
2019-03-05T05:24:00.413Z,29.00
2019-03-05T05:24:39.327Z,29.00
2019-03-05T05:25:18.427Z,29.00
2019-03-05T05:25:57.770Z,29.00
2019-03-05T05:26:36.922Z,29.00
2019-03-05T05:27:15.884Z,29.00
2019-03-05T05:27:55.150Z,29.00
2019-03-05T05:28:34.210Z,29.00
2019-03-05T05:29:13.681Z,29.00
2019-03-05T05:29:52.842Z,29.00
2019-03-05T05:30:34.444Z,29.10
2019-03-05T05:31:14.036Z,29.10
2019-03-05T05:31:53.562Z,29.10
2019-03-05T05:32:33.051Z,29.10
2019-03-05T05:33:12.178Z,29.10
2019-03-05T05:33:51.359Z,29.10
2019-03-05T05:34:30.210Z,29.10
2019-03-05T05:35:09.011Z,29.10
2019-03-05T05:35:47.649Z,29.10
2019-03-05T05:36:26.646Z,29.10
2019-03-05T05:37:05.552Z,29.10
2019-03-05T05:37:44.830Z,29.10
2019-03-05T05:38:24.167Z,29.10
2019-03-05T05:39:03.215Z,29.10
2019-03-05T05:40:16.268Z,29.10
2019-03-05T05:40:54.983Z,29.10
2019-03-05T05:41:33.623Z,29.20
2019-03-05T05:42:12.432Z,29.20
2019-03-05T05:42:51.104Z,29.20
2019-03-05T05:43:31.980Z,29.20
2019-03-05T05:44:11.447Z,29.20
2019-03-05T05:44:50.803Z,29.20
2019-03-05T05:45:32.226Z,29.20
2019-03-05T05:46:11.768Z,29.20
2019-03-05T05:46:51.080Z,29.20
2019-03-05T05:47:30.376Z,29.20
2019-03-05T05:48:09.062Z,29.20
2019-03-05T05:48:47.842Z,29.20
2019-03-05T05:49:26.975Z,29.20
2019-03-05T05:50:05.942Z,29.20
2019-03-05T05:50:44.675Z,29.20
2019-03-05T05:51:23.813Z,29.30
2019-03-05T05:52:03.352Z,29.30
2019-03-05T05:52:43.391Z,29.30
2019-03-05T05:53:22.056Z,29.30
2019-03-05T05:54:00.733Z,29.30
2019-03-05T05:54:39.457Z,29.30
2019-03-05T05:55:18.273Z,29.30
2019-03-05T05:55:57.536Z,29.30
2019-03-05T05:56:36.936Z,29.30
2019-03-05T05:57:15.632Z,29.30
2019-03-05T05:57:54.243Z,29.30
2019-03-05T05:58:33.683Z,29.30
2019-03-05T05:59:13.912Z,29.30
2019-03-05T05:59:52.656Z,29.30
2019-03-05T06:00:32.420Z,29.30
2019-03-05T06:01:13.674Z,29.30
2019-03-05T06:01:53.149Z,29.40
2019-03-05T06:02:32.565Z,29.30
2019-03-05T06:03:11.239Z,29.40
2019-03-05T06:03:50.006Z,29.40
2019-03-05T06:04:29.082Z,29.40
2019-03-05T06:05:08.533Z,29.40
2019-03-05T06:05:47.327Z,29.40
2019-03-05T06:06:26.281Z,29.40
2019-03-05T06:07:05.401Z,29.40
2019-03-05T06:07:44.072Z,29.50
2019-03-05T06:08:23.250Z,29.40
2019-03-05T06:09:02.248Z,29.40
2019-03-05T06:09:40.896Z,29.40
2019-03-05T06:10:19.236Z,29.50
2019-03-05T06:10:58.837Z,29.50
2019-03-05T06:11:38.386Z,29.50
2019-03-05T06:12:17.580Z,29.50
2019-03-05T06:12:57.146Z,29.50
2019-03-05T06:13:36.547Z,29.50
2019-03-05T06:14:15.273Z,29.50
2019-03-05T06:14:54.632Z,29.50
2019-03-05T06:15:33.596Z,29.50
2019-03-05T06:16:12.967Z,29.50
2019-03-05T06:16:52.091Z,29.50
2019-03-05T06:17:31.781Z,29.50
2019-03-05T06:18:10.658Z,29.50
2019-03-05T06:18:49.684Z,29.50
2019-03-05T06:19:29.396Z,29.50
2019-03-05T06:20:09.277Z,29.50
2019-03-05T06:20:48.810Z,29.50
2019-03-05T06:21:28.581Z,29.50
2019-03-05T06:22:07.446Z,29.50
2019-03-05T06:22:45.935Z,29.50
2019-03-05T06:23:24.640Z,29.50
2019-03-05T06:24:03.332Z,29.50
2019-03-05T06:24:42.149Z,29.60
2019-03-05T06:25:20.870Z,29.50
2019-03-05T06:26:00.054Z,29.60
2019-03-05T06:26:39.207Z,29.60
2019-03-05T06:27:18.187Z,29.60
2019-03-05T06:27:57.613Z,29.60
2019-03-05T06:28:37.146Z,29.60
2019-03-05T06:29:16.875Z,29.60
2019-03-05T06:29:56.147Z,29.60
2019-03-05T06:30:35.685Z,29.60
2019-03-05T06:31:14.335Z,29.60
2019-03-05T06:31:53.195Z,29.60
2019-03-05T06:32:32.707Z,29.60
2019-03-05T06:33:11.632Z,29.60
2019-03-05T06:33:50.485Z,29.60
2019-03-05T06:34:29.962Z,29.70
2019-03-05T06:35:09.325Z,29.70
2019-03-05T06:35:48.877Z,29.70
2019-03-05T06:36:28.323Z,29.70
2019-03-05T06:37:07.000Z,29.70
2019-03-05T06:37:46.520Z,29.70
2019-03-05T06:38:25.590Z,29.70
2019-03-05T06:39:06.312Z,29.70
2019-03-05T06:39:48.086Z,29.70
2019-03-05T06:40:26.364Z,29.70
2019-03-05T06:41:05.797Z,29.70
2019-03-05T06:41:45.220Z,29.70
2019-03-05T06:42:23.928Z,29.70
2019-03-05T06:43:02.605Z,29.70
2019-03-05T06:43:41.600Z,29.70
2019-03-05T06:44:20.322Z,29.70
2019-03-05T06:44:59.217Z,29.70
2019-03-05T06:45:38.765Z,29.70
2019-03-05T06:46:17.710Z,29.80
2019-03-05T06:46:56.615Z,29.70
2019-03-05T06:47:35.334Z,29.80
2019-03-05T06:48:14.395Z,29.70
2019-03-05T06:48:53.079Z,29.80
2019-03-05T06:49:32.212Z,29.70
2019-03-05T06:50:13.349Z,29.80
2019-03-05T06:50:52.112Z,29.80
2019-03-05T06:51:31.092Z,29.80
2019-03-05T06:52:11.842Z,29.80
2019-03-05T06:52:50.996Z,29.80
2019-03-05T06:53:30.494Z,29.80
2019-03-05T06:54:09.572Z,29.80
2019-03-05T06:54:48.944Z,29.90
2019-03-05T06:55:27.975Z,29.90
2019-03-05T06:56:06.772Z,29.80
2019-03-05T06:56:45.468Z,29.90
2019-03-05T06:57:24.054Z,29.90
2019-03-05T06:58:02.840Z,29.80
2019-03-05T06:58:41.627Z,29.90
2019-03-05T06:59:20.869Z,29.90
2019-03-05T07:00:00.423Z,29.90
2019-03-05T07:00:40.902Z,29.90
2019-03-05T07:01:20.098Z,29.90
2019-03-05T07:01:59.347Z,29.90
2019-03-05T07:02:38.804Z,29.90
2019-03-05T07:03:18.348Z,29.90
2019-03-05T07:03:57.039Z,29.90
2019-03-05T07:04:36.337Z,29.90
2019-03-05T07:05:50.194Z,29.90
2019-03-05T07:06:55.628Z,29.90
2019-03-05T07:07:35.224Z,29.90
2019-03-05T07:08:14.941Z,29.90
2019-03-05T07:09:01.482Z,29.90
2019-03-05T07:10:12.230Z,29.90
2019-03-05T07:11:20.921Z,29.90
2019-03-05T07:12:23.225Z,29.90
2019-03-05T07:13:14.593Z,29.90
2019-03-05T07:14:03.347Z,29.90
2019-03-05T07:15:20.231Z,29.90
2019-03-05T07:16:37.932Z,29.90
2019-03-05T07:17:26.146Z,29.90
2019-03-05T07:18:15.315Z,29.90
2019-03-05T07:19:03.903Z,30.00
2019-03-05T07:19:57.940Z,29.90
2019-03-05T07:21:19.231Z,29.90
2019-03-05T07:22:28.540Z,29.90
2019-03-05T07:23:47.496Z,30.00
2019-03-05T07:25:05.844Z,30.00
2019-03-05T07:25:45.045Z,30.00
2019-03-05T07:26:27.648Z,30.00
2019-03-05T07:27:06.454Z,30.00
2019-03-05T07:27:51.160Z,30.00
2019-03-05T07:28:30.537Z,30.00
2019-03-05T07:29:09.097Z,30.00
2019-03-05T07:29:48.019Z,30.10
2019-03-05T07:30:30.384Z,30.00
2019-03-05T07:31:09.791Z,30.10
2019-03-05T07:31:48.785Z,30.00
2019-03-05T07:32:28.088Z,30.10
2019-03-05T07:33:06.784Z,30.00
2019-03-05T07:33:47.380Z,30.10
2019-03-05T07:34:30.275Z,30.10
2019-03-05T07:35:09.971Z,30.10
2019-03-05T07:35:49.131Z,30.10
2019-03-05T07:36:28.170Z,30.10
2019-03-05T07:37:07.268Z,30.10
2019-03-05T07:37:46.190Z,30.10
2019-03-05T07:38:24.898Z,30.10
2019-03-05T07:39:06.874Z,30.10
2019-03-05T07:39:45.579Z,30.10
2019-03-05T07:40:25.045Z,30.10
2019-03-05T07:41:05.028Z,30.10
2019-03-05T07:41:45.101Z,30.10
2019-03-05T07:42:25.121Z,30.10
2019-03-05T07:43:04.979Z,30.10
2019-03-05T07:44:41.503Z,30.10
2019-03-05T07:45:23.612Z,30.10
2019-03-05T07:46:02.454Z,30.10
2019-03-05T07:46:41.953Z,30.10
2019-03-05T07:47:21.263Z,30.10
2019-03-05T07:48:00.338Z,30.10
2019-03-05T07:48:39.043Z,30.20
2019-03-05T07:49:17.817Z,30.10
2019-03-05T07:49:57.158Z,30.10
2019-03-05T07:50:36.279Z,30.20
2019-03-05T07:51:14.968Z,30.10
2019-03-05T07:51:54.056Z,30.20
2019-03-05T07:52:32.787Z,30.20
2019-03-05T07:53:11.530Z,30.20
2019-03-05T07:53:51.003Z,30.20
2019-03-05T07:54:29.767Z,30.20
2019-03-05T07:55:13.657Z,30.20
2019-03-05T07:55:49.134Z,30.20
2019-03-05T07:56:27.774Z,30.20
2019-03-05T07:57:06.827Z,30.20
2019-03-05T07:57:46.170Z,30.20
2019-03-05T07:58:25.422Z,30.20
2019-03-05T07:59:04.778Z,30.20
2019-03-05T07:59:43.413Z,30.20
2019-03-05T08:00:23.732Z,30.20
2019-03-05T08:01:02.412Z,30.20
2019-03-05T08:01:41.053Z,30.20
2019-03-05T08:02:19.776Z,30.20
2019-03-05T08:02:59.225Z,30.20
2019-03-05T08:03:39.324Z,30.20
2019-03-05T08:04:18.258Z,30.20
2019-03-05T08:04:57.558Z,30.20
2019-03-05T08:05:36.980Z,30.20
2019-03-05T08:06:15.805Z,30.20
2019-03-05T08:06:55.009Z,30.20
2019-03-05T08:07:33.632Z,30.20
2019-03-05T08:08:46.468Z,30.20
2019-03-05T08:09:35.524Z,30.20
2019-03-05T08:10:30.535Z,30.30
2019-03-05T08:11:09.206Z,30.30
2019-03-05T08:11:47.922Z,30.30
2019-03-05T08:12:54.910Z,30.20
2019-03-05T08:14:17.855Z,30.30
2019-03-05T08:15:05.976Z,30.30
2019-03-05T08:16:12.317Z,30.30
2019-03-05T08:16:51.648Z,30.30
2019-03-05T08:17:31.164Z,30.30
2019-03-05T08:18:09.877Z,30.30
2019-03-05T08:18:48.523Z,30.30
2019-03-05T08:19:27.157Z,30.30
2019-03-05T08:20:05.829Z,30.30
2019-03-05T08:20:45.089Z,30.30
2019-03-05T08:21:24.314Z,30.30
2019-03-05T08:22:03.498Z,30.30
2019-03-05T08:22:42.218Z,30.30
2019-03-05T08:23:20.981Z,30.30
2019-03-05T08:23:59.865Z,30.30
2019-03-05T08:24:39.106Z,30.30
2019-03-05T08:25:18.564Z,30.30
2019-03-05T08:25:57.276Z,30.30
2019-03-05T08:26:36.434Z,30.30
2019-03-05T08:27:15.112Z,30.30
2019-03-05T08:27:53.832Z,30.30
2019-03-05T08:28:32.926Z,30.40
2019-03-05T08:29:12.283Z,30.40
2019-03-05T08:29:50.945Z,30.40
2019-03-05T08:30:30.904Z,30.40
2019-03-05T08:31:09.588Z,30.30
2019-03-05T08:31:48.873Z,30.40
2019-03-05T08:32:28.196Z,30.40
2019-03-05T08:33:07.210Z,30.40
2019-03-05T08:33:46.721Z,30.40
2019-03-05T08:34:25.396Z,30.30
2019-03-05T08:35:04.100Z,30.30
2019-03-05T08:35:43.061Z,30.30
2019-03-05T08:36:21.830Z,30.40
2019-03-05T08:37:00.614Z,30.40
2019-03-05T08:37:39.695Z,30.40
2019-03-05T08:38:19.286Z,30.30
2019-03-05T08:39:17.610Z,30.40
2019-03-05T08:39:56.337Z,30.40
2019-03-05T08:40:35.027Z,30.40
2019-03-05T08:41:14.475Z,30.40
2019-03-05T08:41:53.219Z,30.40
2019-03-05T08:42:31.908Z,30.40
2019-03-05T08:43:11.361Z,30.40
2019-03-05T08:43:50.174Z,30.40
2019-03-05T08:44:29.015Z,30.40
2019-03-05T08:45:08.407Z,30.40
2019-03-05T08:45:47.922Z,30.50
2019-03-05T08:46:26.582Z,30.40
2019-03-05T08:47:05.238Z,30.50
2019-03-05T08:47:43.909Z,30.50
2019-03-05T08:48:23.468Z,30.50
2019-03-05T08:49:02.254Z,30.40
2019-03-05T08:49:41.439Z,30.40
2019-03-05T08:50:21.116Z,30.40
2019-03-05T08:51:00.432Z,30.40
2019-03-05T08:51:39.706Z,30.40
2019-03-05T08:52:19.069Z,30.50
2019-03-05T08:52:58.222Z,30.50
2019-03-05T08:53:48.808Z,30.40
2019-03-05T08:54:18.205Z,30.50
2019-03-05T08:54:56.868Z,30.50
2019-03-05T08:55:35.600Z,30.50
2019-03-05T08:56:15.467Z,30.50
2019-03-05T08:56:54.149Z,30.50
2019-03-05T08:57:32.925Z,30.50
2019-03-05T08:58:11.693Z,30.50
2019-03-05T08:58:50.893Z,30.40
2019-03-05T08:59:32.485Z,30.40
2019-03-05T09:00:12.559Z,30.50
2019-03-05T09:00:51.616Z,30.50
2019-03-05T09:01:30.864Z,30.50
2019-03-05T09:02:10.319Z,30.50
2019-03-05T09:02:49.588Z,30.50
2019-03-05T09:03:28.265Z,30.50
2019-03-05T09:04:06.875Z,30.50
2019-03-05T09:04:46.223Z,30.50
2019-03-05T09:05:24.871Z,30.50
2019-03-05T09:06:03.674Z,30.50
2019-03-05T09:06:42.948Z,30.50
2019-03-05T09:07:21.632Z,30.50
2019-03-05T09:08:02.090Z,30.50
2019-03-05T09:08:41.421Z,30.50
2019-03-05T09:09:20.829Z,30.50
2019-03-05T09:10:00.369Z,30.50
2019-03-05T09:10:40.032Z,30.50
2019-03-05T09:11:18.783Z,30.50
2019-03-05T09:11:57.438Z,30.50
2019-03-05T09:12:36.142Z,30.50
2019-03-05T09:13:14.876Z,30.50
2019-03-05T09:13:53.815Z,30.50
2019-03-05T09:14:34.471Z,30.50
2019-03-05T09:15:15.206Z,30.60
2019-03-05T09:15:53.839Z,30.60
2019-03-05T09:16:33.038Z,30.60